Friday, July 20, 2018, 4:56 AM EDT
Back to Local

KWAL, Wallops Flight Fac Airport

Location: Wallops Island, VA, United States Lat: 37.933
Local Time: 4:56 AM EDT ( 8:56 GMT) Lon: -75.467
Time Zone: US/Eastern Elev: 39 ft

Show me the last for .
Show Decoded

2018-07-20 03:54 METAR KWAL 200754Z AUTO 10004KT 10SM CLR 21/18 A3010 RMK AO2 SLP190 T02060183 =
2018-07-20 02:54 METAR KWAL 200654Z AUTO 08004KT 10SM CLR 21/18 A3010 RMK AO2 SLP190 T02110183 =
2018-07-20 01:54 METAR KWAL 200554Z AUTO 00000KT 10SM CLR 20/18 A3011 RMK AO2 SLP194 T02000183
                 10256 20200 50000 =
2018-07-20 00:54 METAR KWAL 200454Z AUTO 00000KT 10SM CLR 21/18 A3012 RMK AO2 SLP195 T02110183
                 403000200 =
2018-07-19 23:54 METAR KWAL 200354Z AUTO 00000KT 10SM CLR 21/18 A3012 RMK AO2 SLP195 T02060178 =
2018-07-19 22:54 METAR KWAL 200254Z AUTO 00000KT 10SM CLR 22/18 A3011 RMK AO2 SLP193 T02220178
                 53011 =
2018-07-19 21:54 METAR KWAL 200154Z AUTO 00000KT 10SM CLR 24/18 A3010 RMK AO2 SLP190 T02440183 =
2018-07-19 20:54 METAR KWAL 200054Z AUTO 17003KT 10SM CLR 24/18 A3009 RMK AO2 SLP185 T02390178 =
2018-07-19 19:54 METAR KWAL 192354Z AUTO 11005KT 10SM CLR 26/17 A3008 RMK AO2 SLP183 T02560167
                 10300 20256 53000 =
2018-07-19 18:54 METAR KWAL 192254Z AUTO 12006KT 10SM CLR 27/17 A3007 RMK AO2 SLP180 T02720167 =
2018-07-19 17:54 METAR KWAL 192154Z AUTO 16008KT 10SM CLR 28/16 A3007 RMK AO2 SLP180 T02780161 =
2018-07-19 16:54 METAR KWAL 192054Z AUTO 15011KT 10SM CLR 28/18 A3008 RMK AO2 SLP182 T02830178
                 58004 =
2018-07-19 15:54 METAR KWAL 191954Z 12007KT 10SM CLR 29/16 A3008 RMK AO2 SLP183 T02940161 =
2018-07-19 14:54 METAR KWAL 191854Z 10010KT 10SM CLR 29/17 A3009 RMK AO2 SLP185 T02940172 =
2018-07-19 13:54 METAR KWAL 191754Z 10009KT 10SM FEW050 BKN250 29/17 A3009 RMK AO2 SLP186
                 T02940172 10294 20250 58003 =
2018-07-19 12:54 METAR KWAL 191654Z 08008KT 10SM SCT050 BKN250 29/17 A3009 RMK AO2 SLP188
                 T02940172 =
2018-07-19 11:54 METAR KWAL 191554Z 07010KT 10SM FEW040 FEW060 BKN250 29/17 A3010 RMK AO2 SLP188
                 T02890172 =
2018-07-19 10:54 METAR KWAL 191454Z 07008KT 10SM CLR 28/18 A3010 RMK AO2 SLP189 T02830183 51016 =
2018-07-19 09:54 METAR KWAL 191354Z 05011KT 10SM FEW030 FEW250 28/18 A3008 RMK AO2 SLP183
                 T02780183 =
2018-07-19 08:54 METAR KWAL 191254Z COR 03009KT 10SM FEW020 FEW250 27/21 A3007 RMK AO2 SLP180
                 T02670206 =
2018-07-19 07:54 METAR KWAL 191154Z 01004KT 10SM FEW050 FEW080 25/20 A3005 RMK AO2 SLP173
                 T02500200 10250 20200 52016 =
2018-07-19 06:54 METAR KWAL 191054Z AUTO 36008KT 7SM CLR 21/19 A3004 RMK AO2 SLP168 T02110194 =
2018-07-19 05:54 METAR KWAL 190954Z AUTO 00000KT 6SM BR CLR 21/19 A3002 RMK AO2 SLP162 T02060194
                 =

Support USWX by starting your Amazon purchase here.